createdAt,value
2017-03-09T00:00:51.713Z,0
2017-03-09T00:01:51.776Z,0
2017-03-09T00:02:51.431Z,0
2017-03-09T00:03:51.885Z,0
2017-03-09T00:04:51.934Z,0
2017-03-09T00:05:51.982Z,0
2017-03-09T00:06:52.042Z,0
2017-03-09T00:07:52.095Z,0
2017-03-09T00:08:52.164Z,0
2017-03-09T00:09:52.216Z,0
2017-03-09T00:10:52.281Z,0
2017-03-09T00:11:52.303Z,0
2017-03-09T00:12:52.376Z,0
2017-03-09T00:13:52.432Z,0
2017-03-09T00:14:52.086Z,0
2017-03-09T00:15:52.541Z,0
2017-03-09T00:16:52.586Z,0
2017-03-09T00:17:52.669Z,0
2017-03-09T00:18:52.694Z,0
2017-03-09T00:19:52.767Z,0
2017-03-09T00:20:52.803Z,0
2017-03-09T00:21:52.880Z,0
2017-03-09T00:22:52.913Z,0
2017-03-09T00:23:52.586Z,0
2017-03-09T00:24:53.041Z,0
2017-03-09T00:25:53.095Z,0
2017-03-09T00:26:53.159Z,0
2017-03-09T00:27:53.179Z,0
2017-03-09T00:28:53.258Z,0
2017-03-09T00:29:53.291Z,0
2017-03-09T00:30:53.347Z,0
2017-03-09T00:31:53.431Z,0
2017-03-09T00:32:53.448Z,0
2017-03-09T00:33:53.503Z,0
2017-03-09T00:34:53.564Z,0
2017-03-09T00:35:53.615Z,0
2017-03-09T00:36:53.667Z,0
2017-03-09T00:37:53.356Z,0
2017-03-09T00:38:53.800Z,0
2017-03-09T00:39:53.824Z,0
2017-03-09T00:40:53.890Z,0
2017-03-09T00:41:53.954Z,0
2017-03-09T00:42:53.991Z,0
2017-03-09T00:43:54.042Z,0
2017-03-09T00:44:54.098Z,0
2017-03-09T00:45:54.162Z,0
2017-03-09T00:46:54.212Z,0
2017-03-09T00:47:53.879Z,0
2017-03-09T00:48:54.341Z,0
2017-03-09T00:49:54.388Z,0
2017-03-09T00:50:54.454Z,0
2017-03-09T00:51:54.517Z,0
2017-03-09T00:52:54.541Z,0
2017-03-09T00:53:54.593Z,0
2017-03-09T00:54:54.273Z,0
2017-03-09T00:55:54.714Z,0
2017-03-09T00:56:54.759Z,0
2017-03-09T00:57:54.813Z,0
2017-03-09T00:58:54.907Z,0
2017-03-09T00:59:54.920Z,0
2017-03-09T01:00:54.994Z,0
2017-03-09T01:01:55.061Z,0
2017-03-09T01:02:55.105Z,0
2017-03-09T01:03:55.126Z,0
2017-03-09T01:04:55.242Z,0
2017-03-09T01:05:55.248Z,0
2017-03-09T01:06:55.304Z,0
2017-03-09T01:07:55.372Z,0
2017-03-09T01:08:55.431Z,0
2017-03-09T01:09:55.492Z,0
2017-03-09T01:10:55.538Z,0
2017-03-09T01:11:55.595Z,0
2017-03-09T01:12:55.646Z,0
2017-03-09T01:13:55.696Z,0
2017-03-09T01:14:55.754Z,0
2017-03-09T01:15:55.785Z,0
2017-03-09T01:16:55.858Z,0
2017-03-09T01:17:55.898Z,0
2017-03-09T01:18:55.966Z,0
2017-03-09T01:19:55.627Z,0
2017-03-09T01:20:56.070Z,0
2017-03-09T01:21:56.120Z,0
2017-03-09T01:22:56.177Z,0
2017-03-09T01:23:56.237Z,0
2017-03-09T01:24:56.287Z,0
2017-03-09T01:25:56.355Z,0
2017-03-09T01:26:56.395Z,0
2017-03-09T01:27:56.448Z,0
2017-03-09T01:28:56.516Z,0
2017-03-09T01:29:56.573Z,0
2017-03-09T01:30:56.600Z,0
2017-03-09T01:31:56.666Z,0
2017-03-09T01:32:56.333Z,0
2017-03-09T01:33:56.791Z,0
2017-03-09T01:34:56.822Z,0
2017-03-09T01:35:56.918Z,0
2017-03-09T01:36:56.933Z,0
2017-03-09T01:37:57.007Z,0
2017-03-09T01:38:57.060Z,0
2017-03-09T01:39:57.116Z,0
2017-03-09T01:40:57.177Z,0
2017-03-09T01:41:57.213Z,0
2017-03-09T01:42:57.289Z,0
2017-03-09T01:43:57.328Z,0
2017-03-09T01:44:57.385Z,0
2017-03-09T01:45:57.431Z,0
2017-03-09T01:46:57.510Z,0
2017-03-09T01:47:57.136Z,0
2017-03-09T01:48:57.609Z,0
2017-03-09T01:49:57.657Z,0
2017-03-09T01:50:57.683Z,0
2017-03-09T01:51:57.767Z,0
2017-03-09T01:52:57.820Z,0
2017-03-09T01:53:57.848Z,0
2017-03-09T01:54:57.907Z,0
2017-03-09T01:55:57.975Z,0
2017-03-09T01:56:58.036Z,0
2017-03-09T01:57:58.113Z,0
2017-03-09T01:58:58.129Z,0
2017-03-09T01:59:58.194Z,0
2017-03-09T02:00:58.256Z,0
2017-03-09T02:01:58.301Z,0
2017-03-09T02:02:57.977Z,0
2017-03-09T02:03:58.402Z,0
2017-03-09T02:04:58.453Z,0
2017-03-09T02:05:58.127Z,0
2017-03-09T02:06:58.564Z,0
2017-03-09T02:07:58.626Z,0
2017-03-09T02:08:58.666Z,0
2017-03-09T02:09:58.752Z,0
2017-03-09T02:10:58.791Z,0
2017-03-09T02:11:58.851Z,0
2017-03-09T02:12:58.908Z,0
2017-03-09T02:13:58.951Z,0
2017-03-09T02:14:59.016Z,0
2017-03-09T02:15:59.051Z,0
2017-03-09T02:16:59.121Z,0
2017-03-09T02:17:59.170Z,0
2017-03-09T02:18:59.215Z,0
2017-03-09T02:19:59.278Z,0
2017-03-09T02:20:59.343Z,0
2017-03-09T02:21:59.402Z,0
2017-03-09T02:22:59.429Z,0
2017-03-09T02:23:59.504Z,0
2017-03-09T02:24:59.534Z,0
2017-03-09T02:25:59.607Z,0
2017-03-09T02:26:59.673Z,0
2017-03-09T02:27:59.744Z,0
2017-03-09T02:28:59.761Z,0
2017-03-09T02:29:59.839Z,0
2017-03-09T02:30:59.874Z,0
2017-03-09T02:31:59.930Z,0
2017-03-09T02:32:59.611Z,0
2017-03-09T02:34:00.038Z,0
2017-03-09T02:35:00.100Z,0
2017-03-09T02:36:00.159Z,0
2017-03-09T02:37:00.197Z,0
2017-03-09T02:38:00.256Z,0
2017-03-09T02:39:00.319Z,0
2017-03-09T02:40:00.373Z,0
2017-03-09T02:41:00.413Z,0
2017-03-09T02:42:00.454Z,0
2017-03-09T02:43:00.532Z,0
2017-03-09T02:44:00.584Z,0
2017-03-09T02:45:00.652Z,0
2017-03-09T02:46:00.687Z,0
2017-03-09T02:47:00.735Z,0
2017-03-09T02:48:00.803Z,0
2017-03-09T02:49:00.873Z,0
2017-03-09T02:50:00.911Z,0
2017-03-09T02:51:00.976Z,0
2017-03-09T02:52:01.027Z,0
2017-03-09T02:53:01.068Z,0
2017-03-09T02:54:01.123Z,0
2017-03-09T02:55:01.186Z,0
2017-03-09T02:56:01.231Z,0
2017-03-09T02:57:01.299Z,0
2017-03-09T02:58:01.331Z,0
2017-03-09T02:59:01.416Z,0
2017-03-09T03:00:01.447Z,0
2017-03-09T03:01:01.531Z,0
2017-03-09T03:02:01.565Z,0
2017-03-09T03:03:01.609Z,0
2017-03-09T03:04:01.651Z,0
2017-03-09T03:05:01.737Z,0
2017-03-09T03:06:01.762Z,0
2017-03-09T03:07:01.831Z,0
2017-03-09T03:08:01.904Z,0
2017-03-09T03:09:01.953Z,0
2017-03-09T03:10:01.974Z,0
2017-03-09T03:11:02.040Z,0
2017-03-09T03:12:02.141Z,0
2017-03-09T03:13:02.137Z,0
2017-03-09T03:14:02.229Z,0
2017-03-09T03:15:02.265Z,0
2017-03-09T03:16:02.315Z,0
2017-03-09T03:17:02.384Z,0
2017-03-09T03:18:02.035Z,0
2017-03-09T03:19:02.494Z,0
2017-03-09T03:20:02.553Z,0
2017-03-09T03:21:02.592Z,0
2017-03-09T03:22:02.664Z,0
2017-03-09T03:23:02.692Z,0
2017-03-09T03:24:02.762Z,0
2017-03-09T03:25:02.812Z,0
2017-03-09T03:26:02.846Z,0
2017-03-09T03:27:02.920Z,0
2017-03-09T03:28:02.983Z,0
2017-03-09T03:29:03.009Z,0
2017-03-09T03:30:03.078Z,0
2017-03-09T03:31:02.756Z,0
2017-03-09T03:32:03.194Z,0
2017-03-09T03:33:03.257Z,0
2017-03-09T03:34:03.299Z,0
2017-03-09T03:35:03.362Z,0
2017-03-09T03:36:03.415Z,0
2017-03-09T03:37:03.458Z,0
2017-03-09T03:38:03.510Z,0
2017-03-09T03:39:03.568Z,0
2017-03-09T03:40:03.612Z,0
2017-03-09T03:41:03.670Z,0
2017-03-09T03:42:03.727Z,0
2017-03-09T03:43:03.800Z,0
2017-03-09T03:44:03.850Z,0
2017-03-09T03:45:03.934Z,0
2017-03-09T03:46:03.950Z,0
2017-03-09T03:47:04.000Z,0
2017-03-09T03:48:03.669Z,0
2017-03-09T03:49:04.115Z,0
2017-03-09T03:50:04.164Z,0
2017-03-09T03:51:04.228Z,0
2017-03-09T03:52:04.265Z,0
2017-03-09T03:53:04.322Z,0
2017-03-09T03:54:03.995Z,0
2017-03-09T03:55:04.445Z,0
2017-03-09T03:56:04.491Z,0
2017-03-09T03:57:04.557Z,0
2017-03-09T03:58:04.601Z,0
2017-03-09T03:59:04.638Z,0
2017-03-09T04:00:04.713Z,0
2017-03-09T04:01:04.782Z,0
2017-03-09T04:02:04.808Z,0
2017-03-09T04:03:04.871Z,0
2017-03-09T04:04:04.933Z,0
2017-03-09T04:05:04.602Z,0
2017-03-09T04:06:05.051Z,0
2017-03-09T04:07:05.076Z,0
2017-03-09T04:08:05.148Z,0
2017-03-09T04:09:05.210Z,0
2017-03-09T04:10:05.256Z,0
2017-03-09T04:11:05.325Z,0
2017-03-09T04:12:05.360Z,0
2017-03-09T04:13:05.423Z,0
2017-03-09T04:14:05.471Z,0
2017-03-09T04:15:05.122Z,0
2017-03-09T04:16:05.174Z,0
2017-03-09T04:17:05.637Z,0
2017-03-09T04:18:05.681Z,0
2017-03-09T04:19:05.724Z,0
2017-03-09T04:20:05.787Z,0
2017-03-09T04:21:05.829Z,0
2017-03-09T04:22:05.925Z,0
2017-03-09T04:23:05.952Z,0
2017-03-09T04:24:05.997Z,0
2017-03-09T04:25:05.673Z,0
2017-03-09T04:26:06.127Z,0
2017-03-09T04:27:06.195Z,0
2017-03-09T04:28:06.233Z,0
2017-03-09T04:29:06.301Z,0
2017-03-09T04:30:06.329Z,0
2017-03-09T04:31:06.396Z,0
2017-03-09T04:32:06.450Z,0
2017-03-09T04:33:06.500Z,0
2017-03-09T04:34:06.182Z,0
2017-03-09T04:35:06.601Z,0
2017-03-09T04:36:06.654Z,0
2017-03-09T04:37:06.711Z,0
2017-03-09T04:38:06.374Z,0
2017-03-09T04:39:06.814Z,0
2017-03-09T04:40:06.885Z,0
2017-03-09T04:41:06.938Z,0
2017-03-09T04:42:06.982Z,0
2017-03-09T04:43:06.645Z,0
2017-03-09T04:44:07.098Z,0
2017-03-09T04:45:07.153Z,0
2017-03-09T04:46:07.222Z,0
2017-03-09T04:47:06.863Z,0
2017-03-09T04:48:07.319Z,0
2017-03-09T04:49:07.383Z,0
2017-03-09T04:50:07.430Z,0
2017-03-09T04:51:07.479Z,0
2017-03-09T04:52:07.549Z,0
2017-03-09T04:53:07.563Z,0
2017-03-09T04:54:07.631Z,0
2017-03-09T04:55:07.718Z,0
2017-03-09T04:56:07.767Z,0
2017-03-09T04:57:07.803Z,0
2017-03-09T04:58:07.839Z,0
2017-03-09T04:59:07.904Z,0
2017-03-09T05:00:07.982Z,0
2017-03-09T05:01:08.016Z,0
2017-03-09T05:02:08.082Z,0
2017-03-09T05:03:08.128Z,0
2017-03-09T05:04:08.198Z,0
2017-03-09T05:05:08.231Z,0
2017-03-09T05:06:08.319Z,0
2017-03-09T05:07:08.342Z,0
2017-03-09T05:08:08.391Z,0
2017-03-09T05:09:08.447Z,0
2017-03-09T05:10:08.118Z,0
2017-03-09T05:11:08.566Z,0
2017-03-09T05:12:08.592Z,0
2017-03-09T05:13:08.672Z,0
2017-03-09T05:14:08.716Z,0
2017-03-09T05:15:08.983Z,0
2017-03-09T05:16:08.828Z,0
2017-03-09T05:17:08.492Z,0
2017-03-09T05:18:08.950Z,0
2017-03-09T05:19:08.993Z,0
2017-03-09T05:20:09.031Z,0
2017-03-09T05:21:09.103Z,0
2017-03-09T05:22:09.138Z,0
2017-03-09T05:23:09.193Z,0
2017-03-09T05:24:09.259Z,0
2017-03-09T05:25:09.326Z,0
2017-03-09T05:26:09.384Z,0
2017-03-09T05:27:09.419Z,0
2017-03-09T05:28:09.489Z,0
2017-03-09T05:29:09.537Z,0
2017-03-09T05:30:09.592Z,0
2017-03-09T05:31:09.652Z,4
2017-03-09T05:32:09.313Z,4
2017-03-09T05:33:09.763Z,4
2017-03-09T05:34:09.806Z,4
2017-03-09T05:35:09.872Z,4
2017-03-09T05:36:09.910Z,8
2017-03-09T05:37:10.447Z,8
2017-03-09T05:38:09.657Z,4
2017-03-09T05:39:10.083Z,4
2017-03-09T05:40:10.131Z,8
2017-03-09T05:41:10.202Z,8
2017-03-09T05:42:09.875Z,8
2017-03-09T05:43:10.291Z,12
2017-03-09T05:44:10.371Z,12
2017-03-09T05:45:10.433Z,12
2017-03-09T05:46:10.456Z,12
2017-03-09T05:47:10.500Z,12
2017-03-09T05:48:10.564Z,16
2017-03-09T05:49:10.646Z,16
2017-03-09T05:50:10.694Z,20
2017-03-09T05:51:10.737Z,16
2017-03-09T05:52:10.777Z,20
2017-03-09T05:53:10.842Z,20
2017-03-09T05:54:10.902Z,20
2017-03-09T05:55:10.970Z,24
2017-03-09T05:56:10.996Z,28
2017-03-09T05:57:11.045Z,36
2017-03-09T05:58:10.730Z,36
2017-03-09T05:59:11.198Z,40
2017-03-09T06:00:11.217Z,40
2017-03-09T06:01:11.271Z,48
2017-03-09T06:02:11.322Z,52
2017-03-09T06:03:11.386Z,60
2017-03-09T06:04:11.450Z,64
2017-03-09T06:05:11.495Z,64
2017-03-09T06:06:11.548Z,60
2017-03-09T06:07:11.609Z,56
2017-03-09T06:08:11.657Z,60
2017-03-09T06:09:11.702Z,68
2017-03-09T06:10:11.749Z,76
2017-03-09T06:11:12.013Z,80
2017-03-09T06:12:11.869Z,92
2017-03-09T06:13:11.942Z,96
2017-03-09T06:14:11.988Z,100
2017-03-09T06:15:12.032Z,100
2017-03-09T06:16:12.090Z,100
2017-03-09T06:17:12.127Z,92
2017-03-09T06:18:12.204Z,88
2017-03-09T06:19:12.237Z,80
2017-03-09T06:20:12.293Z,80
2017-03-09T06:21:12.346Z,76
2017-03-09T06:22:12.405Z,72
2017-03-09T06:23:12.677Z,80
2017-03-09T06:24:12.135Z,88
2017-03-09T06:25:12.571Z,96
2017-03-09T06:26:12.647Z,100
2017-03-09T06:27:12.680Z,108
2017-03-09T06:28:12.736Z,112
2017-03-09T06:29:12.793Z,116
2017-03-09T06:30:12.858Z,116
2017-03-09T06:31:12.906Z,120
2017-03-09T06:32:12.967Z,124
2017-03-09T06:33:13.033Z,124
2017-03-09T06:34:13.080Z,132
2017-03-09T06:35:13.124Z,136
2017-03-09T06:36:12.805Z,144
2017-03-09T06:37:13.218Z,152
2017-03-09T06:38:13.297Z,156
2017-03-09T06:39:13.340Z,156
2017-03-09T06:40:13.405Z,156
2017-03-09T06:41:13.442Z,160
2017-03-09T06:42:13.497Z,160
2017-03-09T06:43:13.573Z,160
2017-03-09T06:44:13.611Z,156
2017-03-09T06:45:13.635Z,152
2017-03-09T06:46:13.695Z,152
2017-03-09T06:47:13.765Z,156
2017-03-09T06:48:13.808Z,156
2017-03-09T06:49:13.871Z,168
2017-03-09T06:50:13.921Z,180
2017-03-09T06:51:14.198Z,192
2017-03-09T06:52:14.036Z,208
2017-03-09T06:53:14.092Z,220
2017-03-09T06:54:14.133Z,232
2017-03-09T06:55:14.200Z,240
2017-03-09T06:56:14.239Z,240
2017-03-09T06:57:14.285Z,244
2017-03-09T06:58:14.359Z,252
2017-03-09T06:59:14.457Z,264
2017-03-09T07:00:14.453Z,276
2017-03-09T07:01:14.163Z,280
2017-03-09T07:02:14.569Z,288
2017-03-09T07:03:14.599Z,296
2017-03-09T07:04:14.658Z,312
2017-03-09T07:05:14.746Z,316
2017-03-09T07:06:14.793Z,316
2017-03-09T07:07:14.842Z,296
2017-03-09T07:08:14.889Z,284
2017-03-09T07:09:14.950Z,288
2017-03-09T07:10:14.989Z,288
2017-03-09T07:11:15.055Z,296
2017-03-09T07:12:15.106Z,300
2017-03-09T07:13:15.145Z,288
2017-03-09T07:14:15.189Z,284
2017-03-09T07:15:15.266Z,292
2017-03-09T07:16:15.322Z,316
2017-03-09T07:17:15.354Z,324
2017-03-09T07:18:15.417Z,316
2017-03-09T07:19:15.461Z,300
2017-03-09T07:20:15.521Z,280
2017-03-09T07:21:15.570Z,260
2017-03-09T07:22:15.639Z,256
2017-03-09T07:23:15.695Z,276
2017-03-09T07:24:15.743Z,308
2017-03-09T07:25:15.800Z,320
2017-03-09T07:26:16.058Z,332
2017-03-09T07:27:15.895Z,368
2017-03-09T07:28:30.108Z,432
2017-03-09T07:29:15.618Z,476
2017-03-09T07:30:16.065Z,504
2017-03-09T07:31:16.133Z,516
2017-03-09T07:32:16.172Z,512
2017-03-09T07:33:16.214Z,508
2017-03-09T07:34:16.261Z,504
2017-03-09T07:35:16.327Z,472
2017-03-09T07:36:16.386Z,432
2017-03-09T07:37:16.441Z,428
2017-03-09T07:38:16.520Z,456
2017-03-09T07:39:16.524Z,476
2017-03-09T07:40:16.594Z,468
2017-03-09T07:41:16.655Z,484
2017-03-09T07:42:16.713Z,496
2017-03-09T07:43:16.759Z,508
2017-03-09T07:44:16.808Z,496
2017-03-09T07:45:16.852Z,504
2017-03-09T07:46:16.904Z,524
2017-03-09T07:47:16.962Z,552
2017-03-09T07:48:17.014Z,556
2017-03-09T07:49:17.074Z,524
2017-03-09T07:50:17.139Z,512
2017-03-09T07:51:17.182Z,516
2017-03-09T07:52:17.231Z,536
2017-03-09T07:53:17.296Z,556
2017-03-09T07:54:17.345Z,572
2017-03-09T07:55:17.409Z,560
2017-03-09T07:56:17.669Z,556
2017-03-09T07:57:17.515Z,560
2017-03-09T07:58:17.564Z,540
2017-03-09T07:59:17.614Z,516
2017-03-09T08:00:17.685Z,524
2017-03-09T08:01:17.916Z,532
2017-03-09T08:02:17.993Z,544
2017-03-09T08:03:17.818Z,540
2017-03-09T08:04:17.861Z,540
2017-03-09T08:05:17.936Z,552
2017-03-09T08:06:17.978Z,536
2017-03-09T08:07:31.692Z,508
2017-03-09T08:08:18.298Z,504
2017-03-09T08:09:18.152Z,520
2017-03-09T08:10:18.183Z,536
2017-03-09T08:11:18.271Z,572
2017-03-09T08:12:17.918Z,632
2017-03-09T08:13:18.365Z,684
2017-03-09T08:14:18.034Z,704
2017-03-09T08:15:18.480Z,728
2017-03-09T08:16:18.516Z,768
2017-03-09T08:17:18.563Z,776
2017-03-09T08:18:18.641Z,760
2017-03-09T08:19:18.675Z,744
2017-03-09T08:20:18.742Z,752
2017-03-09T08:21:18.802Z,752
2017-03-09T08:22:18.836Z,748
2017-03-09T08:23:18.888Z,736
2017-03-09T08:24:18.951Z,716
2017-03-09T08:25:18.218Z,712
2017-03-09T08:26:19.062Z,736
2017-03-09T08:27:19.125Z,740
2017-03-09T08:28:19.159Z,720
2017-03-09T08:29:19.200Z,700
2017-03-09T08:30:19.476Z,700
2017-03-09T08:31:19.314Z,700
2017-03-09T08:32:19.390Z,680
2017-03-09T08:33:19.458Z,648
2017-03-09T08:34:19.487Z,640
2017-03-09T08:35:19.516Z,640
2017-03-09T08:36:19.572Z,632
2017-03-09T08:37:19.663Z,628
2017-03-09T08:40:19.812Z,640
2017-03-09T08:41:19.847Z,672
2017-03-09T08:42:19.901Z,712
2017-03-09T08:43:20.169Z,740
2017-03-09T08:44:20.015Z,752
2017-03-09T08:45:20.084Z,764
2017-03-09T08:47:20.190Z,780
2017-03-09T08:48:20.229Z,812
2017-03-09T08:49:20.291Z,852
2017-03-09T08:50:20.330Z,860
2017-03-09T08:51:20.420Z,848
2017-03-09T08:52:20.444Z,820
2017-03-09T08:53:20.487Z,828
2017-03-09T08:54:20.559Z,828
2017-03-09T08:55:20.585Z,832
2017-03-09T08:56:20.637Z,856
2017-03-09T08:57:20.310Z,884
2017-03-09T08:58:20.762Z,916
2017-03-09T08:59:20.811Z,916
2017-03-09T09:00:20.493Z,932
2017-03-09T09:01:20.946Z,916
2017-03-09T09:02:20.986Z,936
2017-03-09T09:03:20.642Z,912
2017-03-09T09:04:21.077Z,880
2017-03-09T09:05:21.133Z,888
2017-03-09T09:06:21.180Z,900
2017-03-09T09:07:21.431Z,932
2017-03-09T09:08:21.294Z,904
2017-03-09T09:09:21.329Z,1044
2017-03-09T09:10:21.398Z,1044
2017-03-09T09:11:35.106Z,1088
2017-03-09T09:12:35.175Z,1036
2017-03-09T09:13:21.562Z,1064
2017-03-09T09:14:21.625Z,1152
2017-03-09T09:15:21.682Z,1248
2017-03-09T09:16:21.730Z,1192
2017-03-09T09:17:21.759Z,1192
2017-03-09T09:18:21.829Z,1172
2017-03-09T09:19:21.892Z,1260
2017-03-09T09:20:21.945Z,1288
2017-03-09T09:21:22.003Z,1356
2017-03-09T09:22:22.037Z,1456
2017-03-09T09:23:22.080Z,1400
2017-03-09T09:24:21.776Z,1412
2017-03-09T09:25:21.843Z,1392
2017-03-09T09:26:22.269Z,1328
2017-03-09T09:27:22.324Z,1220
2017-03-09T09:28:22.368Z,1164
2017-03-09T09:29:22.431Z,1144
2017-03-09T09:30:22.483Z,1112
2017-03-09T09:31:22.528Z,1164
2017-03-09T09:32:22.594Z,1240
2017-03-09T09:33:22.614Z,1288
2017-03-09T09:34:22.693Z,1288
2017-03-09T09:35:22.747Z,1284
2017-03-09T09:36:22.404Z,1316
2017-03-09T09:37:22.840Z,1264
2017-03-09T09:38:22.884Z,1208
2017-03-09T09:39:22.948Z,1272
2017-03-09T09:40:23.021Z,1320
2017-03-09T09:41:23.066Z,1320
2017-03-09T09:42:23.103Z,1244
2017-03-09T09:43:23.175Z,1196
2017-03-09T09:44:22.832Z,1196
2017-03-09T09:45:23.282Z,1244
2017-03-09T09:46:23.331Z,1312
2017-03-09T09:47:23.383Z,1308
2017-03-09T09:48:23.434Z,1292
2017-03-09T09:49:23.488Z,1316
2017-03-09T09:50:23.547Z,1336
2017-03-09T09:51:23.578Z,1400
2017-03-09T09:52:23.647Z,1476
2017-03-09T09:53:23.278Z,1536
2017-03-09T09:54:23.375Z,1536
2017-03-09T09:55:23.796Z,1508
2017-03-09T09:56:23.855Z,1496
2017-03-09T09:57:23.924Z,1544
2017-03-09T09:58:23.962Z,1580
2017-03-09T09:59:24.019Z,1576
2017-03-09T10:00:24.071Z,1588
2017-03-09T10:01:24.124Z,1604
2017-03-09T10:02:24.174Z,1616
2017-03-09T10:03:24.216Z,1604
2017-03-09T10:04:24.280Z,1628
2017-03-09T10:05:24.366Z,1680
2017-03-09T10:06:24.396Z,1676
2017-03-09T10:07:24.464Z,1660
2017-03-09T10:08:24.098Z,1600
2017-03-09T10:09:24.567Z,1584
2017-03-09T10:10:24.600Z,1588
2017-03-09T10:11:24.648Z,1588
2017-03-09T10:12:24.732Z,1588
2017-03-09T10:13:24.793Z,1580
2017-03-09T10:14:24.816Z,1576
2017-03-09T10:15:24.856Z,1576
2017-03-09T10:16:24.921Z,1572
2017-03-09T10:17:24.985Z,1572
2017-03-09T10:18:25.040Z,1580
2017-03-09T10:19:25.083Z,1604
2017-03-09T10:20:24.747Z,1620
2017-03-09T10:21:25.189Z,1596
2017-03-09T10:22:25.250Z,1552
2017-03-09T10:23:24.908Z,1508
2017-03-09T10:24:24.952Z,1512
2017-03-09T10:25:25.436Z,1484
2017-03-09T10:26:25.444Z,1448
2017-03-09T10:27:25.515Z,1424
2017-03-09T10:28:25.574Z,1408
2017-03-09T10:29:25.610Z,1348
2017-03-09T10:30:25.678Z,1320
2017-03-09T10:31:25.714Z,1312
2017-03-09T10:32:25.790Z,1340
2017-03-09T10:33:25.819Z,1376
2017-03-09T10:34:25.904Z,1392
2017-03-09T10:35:25.562Z,1408
2017-03-09T10:36:26.004Z,1432
2017-03-09T10:37:25.670Z,1436
2017-03-09T10:38:25.725Z,1440
2017-03-09T10:39:26.157Z,1456
2017-03-09T10:40:26.206Z,1436
2017-03-09T10:41:26.262Z,1440
2017-03-09T10:42:25.914Z,1408
2017-03-09T10:43:26.361Z,1372
2017-03-09T10:44:26.425Z,1388
2017-03-09T10:45:26.470Z,1412
2017-03-09T10:46:26.511Z,1436
2017-03-09T10:47:26.581Z,1428
2017-03-09T10:48:26.629Z,1432
2017-03-09T10:49:26.314Z,1448
2017-03-09T10:50:26.737Z,1444
2017-03-09T10:51:26.409Z,1392
2017-03-09T10:52:26.855Z,1364
2017-03-09T10:53:26.904Z,1436
2017-03-09T10:54:26.954Z,1448
2017-03-09T10:55:27.035Z,1432
2017-03-09T10:56:27.079Z,1404
2017-03-09T10:57:27.118Z,1388
2017-03-09T10:58:27.166Z,1372
2017-03-09T10:59:27.234Z,1376
2017-03-09T11:00:27.302Z,1352
2017-03-09T11:01:27.327Z,1356
2017-03-09T11:02:27.411Z,1368
2017-03-09T11:03:27.461Z,1400
2017-03-09T11:04:27.484Z,1416
2017-03-09T11:05:27.560Z,1396
2017-03-09T11:06:27.595Z,1364
2017-03-09T11:07:27.274Z,1368
2017-03-09T11:08:27.711Z,1372
2017-03-09T11:09:27.769Z,1364
2017-03-09T11:10:27.819Z,1360
2017-03-09T11:11:27.871Z,1344
2017-03-09T11:12:27.926Z,1348
2017-03-09T11:13:27.981Z,1380
2017-03-09T11:14:28.019Z,1388
2017-03-09T11:15:28.099Z,1388
2017-03-09T11:16:28.121Z,1376
2017-03-09T11:17:28.189Z,1360
2017-03-09T11:18:28.249Z,1372
2017-03-09T11:19:28.289Z,1388
2017-03-09T11:20:27.957Z,1408
2017-03-09T11:21:28.400Z,1412
2017-03-09T11:22:28.475Z,1432
2017-03-09T11:23:28.114Z,1460
2017-03-09T11:24:28.192Z,1440
2017-03-09T11:25:28.601Z,1432
2017-03-09T11:26:28.265Z,1444
2017-03-09T11:27:28.757Z,1476
2017-03-09T11:28:28.782Z,1520
2017-03-09T11:29:28.446Z,1576
2017-03-09T11:30:28.898Z,1600
2017-03-09T11:31:28.965Z,1596
2017-03-09T11:32:28.987Z,1584
2017-03-09T11:33:29.049Z,1564
2017-03-09T11:34:29.100Z,1524
2017-03-09T11:35:29.150Z,1488
2017-03-09T11:36:29.200Z,1464
2017-03-09T11:37:29.262Z,1460
2017-03-09T11:38:29.296Z,1500
2017-03-09T11:39:28.967Z,1540
2017-03-09T11:40:29.425Z,1552
2017-03-09T11:41:29.481Z,1504
2017-03-09T11:42:29.536Z,1428
2017-03-09T11:43:29.569Z,1404
2017-03-09T11:44:29.633Z,1424
2017-03-09T11:45:29.681Z,1468
2017-03-09T11:46:29.743Z,1516
2017-03-09T11:47:29.785Z,1560
2017-03-09T11:48:29.836Z,1592
2017-03-09T11:49:29.900Z,1600
2017-03-09T11:50:29.935Z,1628
2017-03-09T11:51:29.619Z,1640
2017-03-09T11:52:30.069Z,1636
2017-03-09T11:53:30.127Z,1588
2017-03-09T11:54:30.170Z,1568
2017-03-09T11:55:29.812Z,1512
2017-03-09T11:56:30.268Z,1492
2017-03-09T11:57:30.313Z,1516
2017-03-09T11:58:30.380Z,1592
2017-03-09T11:59:30.424Z,1584
2017-03-09T12:00:30.492Z,1588
2017-03-09T12:01:30.529Z,1628
2017-03-09T12:02:30.607Z,1632
2017-03-09T12:03:30.645Z,1640
2017-03-09T12:04:30.698Z,1632
2017-03-09T12:05:30.729Z,1560
2017-03-09T12:06:30.799Z,1532
2017-03-09T12:07:30.865Z,1544
2017-03-09T12:08:30.900Z,1552
2017-03-09T12:09:30.966Z,1528
2017-03-09T12:10:31.031Z,1504
2017-03-09T12:11:31.075Z,1480
2017-03-09T12:12:31.114Z,1500
2017-03-09T12:13:30.812Z,1496
2017-03-09T12:14:31.241Z,1416
2017-03-09T12:15:31.284Z,1380
2017-03-09T12:16:31.336Z,1400
2017-03-09T12:17:31.003Z,1392
2017-03-09T12:18:31.459Z,1356
2017-03-09T12:19:31.493Z,1312
2017-03-09T12:20:31.546Z,1348
2017-03-09T12:21:31.603Z,1360
2017-03-09T12:22:31.652Z,1348
2017-03-09T12:23:31.697Z,1348
2017-03-09T12:24:31.761Z,1388
2017-03-09T12:25:31.824Z,1440
2017-03-09T12:26:31.857Z,1416
2017-03-09T12:27:31.913Z,1400
2017-03-09T12:28:31.975Z,1480
2017-03-09T12:29:32.016Z,1568
2017-03-09T12:30:32.095Z,1544
2017-03-09T12:31:32.139Z,1520
2017-03-09T12:32:32.205Z,1528
2017-03-09T12:33:32.246Z,1472
2017-03-09T12:34:32.306Z,1536
2017-03-09T12:35:32.367Z,1512
2017-03-09T12:36:32.399Z,1552
2017-03-09T12:37:32.477Z,1604
2017-03-09T12:38:32.503Z,1648
2017-03-09T12:39:32.566Z,1696
2017-03-09T12:40:32.645Z,1768
2017-03-09T12:41:32.652Z,1748
2017-03-09T12:42:32.725Z,1680
2017-03-09T12:43:32.772Z,1664
2017-03-09T12:44:32.832Z,1624
2017-03-09T12:45:32.902Z,1684
2017-03-09T12:46:32.566Z,1652
2017-03-09T12:47:32.999Z,1604
2017-03-09T12:48:33.056Z,1568
2017-03-09T12:49:33.106Z,1484
2017-03-09T12:50:33.136Z,1516
2017-03-09T12:51:33.196Z,1500
2017-03-09T12:52:33.262Z,1456
2017-03-09T12:53:33.320Z,1432
2017-03-09T12:54:33.355Z,1460
2017-03-09T12:55:33.419Z,1472
2017-03-09T12:56:33.455Z,1440
2017-03-09T12:57:33.512Z,1356
2017-03-09T12:58:33.583Z,1352
2017-03-09T12:59:33.633Z,1344
2017-03-09T13:00:33.680Z,1312
2017-03-09T13:01:33.772Z,1288
2017-03-09T13:02:33.410Z,1236
2017-03-09T13:03:33.865Z,1220
2017-03-09T13:04:33.909Z,1220
2017-03-09T13:05:33.963Z,1212
2017-03-09T13:06:34.005Z,1192
2017-03-09T13:07:34.043Z,1168
2017-03-09T13:08:34.111Z,1140
2017-03-09T13:09:34.144Z,1140
2017-03-09T13:10:33.834Z,1136
2017-03-09T13:11:34.269Z,1128
2017-03-09T13:12:34.314Z,1160
2017-03-09T13:13:34.360Z,1208
2017-03-09T13:14:34.453Z,1216
2017-03-09T13:15:34.493Z,1188
2017-03-09T13:16:34.521Z,1204
2017-03-09T13:17:34.599Z,1204
2017-03-09T13:18:34.244Z,1192
2017-03-09T13:19:34.695Z,1200
2017-03-09T13:20:34.743Z,1204
2017-03-09T13:21:34.786Z,1200
2017-03-09T13:22:34.866Z,1144
2017-03-09T13:23:34.893Z,1164
2017-03-09T13:24:34.955Z,1184
2017-03-09T13:25:34.999Z,1168
2017-03-09T13:26:35.070Z,1160
2017-03-09T13:27:35.122Z,1148
2017-03-09T13:28:35.177Z,1124
2017-03-09T13:29:35.244Z,1068
2017-03-09T13:30:35.282Z,1108
2017-03-09T13:31:35.346Z,1076
2017-03-09T13:32:35.401Z,1044
2017-03-09T13:33:35.425Z,1020
2017-03-09T13:34:35.497Z,1052
2017-03-09T13:35:35.533Z,1012
2017-03-09T13:36:35.633Z,1024
2017-03-09T13:37:35.287Z,1016
2017-03-09T13:38:35.732Z,1028
2017-03-09T13:39:35.772Z,1024
2017-03-09T13:40:35.810Z,1044
2017-03-09T13:41:35.881Z,1060
2017-03-09T13:42:35.903Z,1068
2017-03-09T13:43:35.573Z,1028
2017-03-09T13:44:36.016Z,1032
2017-03-09T13:45:36.120Z,1040
2017-03-09T13:46:36.397Z,992
2017-03-09T13:47:35.798Z,968
2017-03-09T13:48:35.840Z,948
2017-03-09T13:49:35.900Z,988
2017-03-09T13:50:36.337Z,968
2017-03-09T13:51:36.408Z,972
2017-03-09T13:52:36.445Z,980
2017-03-09T13:53:36.509Z,972
2017-03-09T13:54:36.577Z,976
2017-03-09T13:55:36.610Z,992
2017-03-09T13:56:36.651Z,1004
2017-03-09T13:57:36.701Z,1012
2017-03-09T13:58:36.785Z,1020
2017-03-09T13:59:36.838Z,1020
2017-03-09T14:00:36.888Z,1016
2017-03-09T14:01:36.916Z,1044
2017-03-09T14:02:36.968Z,1060
2017-03-09T14:03:37.044Z,1072
2017-03-09T14:04:37.090Z,1056
2017-03-09T14:05:37.128Z,1056